Time;durP1;ratioP1;P1;durP2;ratioP2;P2;SDS_P1;SDS_P2;PMS_P1;PMS_P2;Temp;Humidity;BMP_temperature;BMP_pressure;BME280_temperature;BME280_humidity;BME280_pressure;Samples;Min_cycle;Max_cycle;Signal;HPM_P1;HPM_P2
2021/06/04 00:03:38;;;;;;;3.73;2.30;;;;;;;;;;10525304;28;20800;-67
2021/06/04 00:08:40;;;;;;;4.90;2.70;;;;;;;;;;10524051;28;20337;-68
2021/06/04 00:13:44;;;;;;;7.73;2.77;;;;;;;;;;10530410;28;20239;-68
2021/06/04 00:18:49;;;;;;;5.93;2.50;;;;;;;;;;10525521;28;20574;-67
2021/06/04 00:23:53;;;;;;;4.73;2.60;;;;;;;;;;10526083;28;20224;-68
2021/06/04 00:28:55;;;;;;;4.57;2.50;;;;;;;;;;10527617;28;20199;-68
2021/06/04 00:33:59;;;;;;;5.57;2.80;;;;;;;;;;10526977;28;20207;-68
2021/06/04 00:39:03;;;;;;;4.63;2.70;;;;;;;;;;10528001;28;20196;-68
2021/06/04 00:44:05;;;;;;;5.47;2.73;;;;;;;;;;10525655;28;20235;-68
2021/06/04 00:49:10;;;;;;;4.73;2.53;;;;;;;;;;10526239;28;20218;-68
2021/06/04 00:54:12;;;;;;;4.93;2.43;;;;;;;;;;10516945;28;20212;-68
2021/06/04 00:59:23;;;;;;;5.37;2.60;;;;;;;;;;10527183;28;20191;-68
2021/06/04 01:04:27;;;;;;;5.07;2.60;;;;;;;;;;10526071;28;20855;-69
2021/06/04 01:09:45;;;;;;;4.97;2.57;;;;;;;;;;10527196;28;20257;-67
2021/06/04 01:14:51;;;;;;;5.10;2.70;;;;;;;;;;10528825;28;20607;-68
2021/06/04 01:19:57;;;;;;;5.23;2.90;;;;;;;;;;10523975;28;20271;-67
2021/06/04 01:25:14;;;;;;;5.33;2.80;;;;;;;;;;10527435;28;20219;-69
2021/06/04 01:30:29;;;;;;;6.43;2.93;;;;;;;;;;10503669;28;20213;-68
2021/06/04 01:35:37;;;;;;;6.20;3.00;;;;;;;;;;10526354;28;20222;-68
2021/06/04 01:40:41;;;;;;;6.50;2.70;;;;;;;;;;10520166;28;20214;-67
2021/06/04 01:45:46;;;;;;;5.60;2.83;;;;;;;;;;10521526;28;20219;-68
2021/06/04 01:50:51;;;;;;;6.33;2.90;;;;;;;;;;10516400;28;20222;-68
2021/06/04 01:55:54;;;;;;;6.33;2.80;;;;;;;;;;10525417;28;20208;-67
2021/06/04 02:01:00;;;;;;;6.57;3.10;;;;;;;;;;10528021;28;20215;-69
2021/06/04 02:06:03;;;;;;;5.83;3.10;;;;;;;;;;10528863;28;20227;-68
2021/06/04 02:11:06;;;;;;;6.63;3.20;;;;;;;;;;10527308;28;20732;-68
2021/06/04 02:16:21;;;;;;;5.63;2.83;;;;;;;;;;10529441;28;20217;-68
2021/06/04 02:21:24;;;;;;;7.70;3.40;;;;;;;;;;10534321;28;20189;-68
2021/06/04 02:26:28;;;;;;;6.20;3.27;;;;;;;;;;10525237;28;20223;-68
2021/06/04 02:31:36;;;;;;;6.67;3.10;;;;;;;;;;10533258;28;20241;-68
2021/06/04 02:36:40;;;;;;;7.13;3.30;;;;;;;;;;10535528;28;20247;-67
2021/06/04 02:41:44;;;;;;;6.60;3.57;;;;;;;;;;10530975;28;20265;-67
2021/06/04 02:46:49;;;;;;;5.00;3.13;;;;;;;;;;10528768;28;20216;-68
2021/06/04 02:51:53;;;;;;;7.80;3.50;;;;;;;;;;10532375;28;20543;-67
2021/06/04 02:56:56;;;;;;;5.50;3.30;;;;;;;;;;10535993;28;20298;-67
2021/06/04 03:02:02;;;;;;;6.30;3.47;;;;;;;;;;10523547;28;20241;-68
2021/06/04 03:07:06;;;;;;;6.80;3.53;;;;;;;;;;10522898;28;20276;-68
2021/06/04 03:12:11;;;;;;;6.67;3.27;;;;;;;;;;10532254;28;20282;-68
2021/06/04 03:17:15;;;;;;;6.17;3.33;;;;;;;;;;10525266;28;20212;-68
2021/06/04 03:22:22;;;;;;;5.90;3.33;;;;;;;;;;10532385;28;20196;-68
2021/06/04 03:27:24;;;;;;;6.17;3.50;;;;;;;;;;10532066;28;20208;-68
2021/06/04 03:32:27;;;;;;;7.33;3.67;;;;;;;;;;10529146;28;20187;-68
2021/06/04 03:37:29;;;;;;;6.50;3.57;;;;;;;;;;10522871;28;20322;-68
2021/06/04 03:42:32;;;;;;;7.20;3.47;;;;;;;;;;10529040;28;20275;-68
2021/06/04 03:47:35;;;;;;;7.97;3.57;;;;;;;;;;10525855;28;20569;-68
2021/06/04 03:52:37;;;;;;;7.43;3.90;;;;;;;;;;10526944;28;20291;-69
2021/06/04 03:57:40;;;;;;;6.13;3.60;;;;;;;;;;10531921;28;20231;-68
2021/06/04 04:02:43;;;;;;;7.87;3.60;;;;;;;;;;10530280;28;20663;-69
2021/06/04 04:07:45;;;;;;;6.90;3.40;;;;;;;;;;10536451;28;20196;-67
2021/06/04 04:12:49;;;;;;;6.17;3.20;;;;;;;;;;10527888;28;20201;-69
2021/06/04 04:17:55;;;;;;;6.17;3.50;;;;;;;;;;10530300;28;20220;-68
2021/06/04 04:22:58;;;;;;;6.90;3.40;;;;;;;;;;10534081;28;20206;-68
2021/06/04 04:28:01;;;;;;;8.03;3.70;;;;;;;;;;10525634;28;20271;-68
2021/06/04 04:33:05;;;;;;;7.90;3.37;;;;;;;;;;10523025;28;20203;-69
2021/06/04 04:38:09;;;;;;;6.93;3.80;;;;;;;;;;10523851;28;20262;-69
2021/06/04 04:43:11;;;;;;;8.37;3.73;;;;;;;;;;10525583;28;20269;-69
2021/06/04 04:48:15;;;;;;;7.47;3.73;;;;;;;;;;10532073;28;20197;-67
2021/06/04 04:53:17;;;;;;;7.57;3.90;;;;;;;;;;10520584;28;20299;-67
2021/06/04 04:58:19;;;;;;;6.90;3.70;;;;;;;;;;10533080;28;20230;-68
2021/06/04 05:03:22;;;;;;;8.17;4.10;;;;;;;;;;10527704;28;20260;-67
2021/06/04 05:08:25;;;;;;;7.17;3.80;;;;;;;;;;10527787;28;20193;-67
2021/06/04 05:13:27;;;;;;;6.90;3.77;;;;;;;;;;10528719;28;20421;-67
2021/06/04 05:18:30;;;;;;;8.23;3.80;;;;;;;;;;10523443;28;20200;-67
2021/06/04 05:23:32;;;;;;;7.67;4.13;;;;;;;;;;10525748;28;20264;-68
2021/06/04 05:28:35;;;;;;;8.40;4.23;;;;;;;;;;10530968;28;20261;-69
2021/06/04 05:33:39;;;;;;;8.20;4.20;;;;;;;;;;10524854;28;20298;-69
2021/06/04 05:38:42;;;;;;;6.73;4.03;;;;;;;;;;10528672;28;20230;-67
2021/06/04 05:43:44;;;;;;;7.27;4.00;;;;;;;;;;10526072;28;20219;-68
2021/06/04 05:48:48;;;;;;;8.33;4.03;;;;;;;;;;10525906;28;20257;-69
2021/06/04 05:53:50;;;;;;;8.07;4.17;;;;;;;;;;10524880;28;20215;-67
2021/06/04 05:58:52;;;;;;;8.77;4.10;;;;;;;;;;10532401;28;20226;-68
2021/06/04 06:03:56;;;;;;;10.40;4.60;;;;;;;;;;10548024;28;20239;-69
2021/06/04 06:08:58;;;;;;;9.30;4.50;;;;;;;;;;10545595;28;20627;-70
2021/06/04 06:14:00;;;;;;;8.87;4.00;;;;;;;;;;10547349;28;20223;-69
2021/06/04 06:19:04;;;;;;;8.00;4.40;;;;;;;;;;10524524;28;20211;-70
2021/06/04 06:24:07;;;;;;;10.10;4.50;;;;;;;;;;10520910;28;20231;-69
2021/06/04 06:29:10;;;;;;;6.60;4.27;;;;;;;;;;10528229;28;20192;-68
2021/06/04 06:34:18;;;;;;;8.27;5.23;;;;;;;;;;10521106;28;20260;-70
2021/06/04 06:39:25;;;;;;;9.27;4.20;;;;;;;;;;10524010;28;20211;-69
2021/06/04 06:44:27;;;;;;;10.40;4.17;;;;;;;;;;10524239;28;20264;-68
2021/06/04 06:49:31;;;;;;;8.13;4.05;;;;;;;;;;10524217;28;20592;-68
2021/06/04 06:54:35;;;;;;;8.17;4.00;;;;;;;;;;10526592;28;20203;-68
2021/06/04 06:59:37;;;;;;;6.35;4.03;;;;;;;;;;10524397;28;20219;-68
2021/06/04 07:04:40;;;;;;;6.93;4.10;;;;;;;;;;10530329;28;20266;-69
2021/06/04 07:09:42;;;;;;;6.55;4.18;;;;;;;;;;10534442;28;20207;-68
2021/06/04 07:14:44;;;;;;;6.53;3.90;;;;;;;;;;10528596;28;20216;-69
2021/06/04 07:19:48;;;;;;;6.82;4.00;;;;;;;;;;10537155;28;20272;-68
2021/06/04 07:24:50;;;;;;;6.65;3.90;;;;;;;;;;10533366;28;20226;-69
2021/06/04 07:29:52;;;;;;;7.18;4.10;;;;;;;;;;10530231;28;20227;-69
2021/06/04 07:34:55;;;;;;;6.38;4.10;;;;;;;;;;10529036;28;20874;-68
2021/06/04 07:39:58;;;;;;;5.85;3.97;;;;;;;;;;10512778;28;20811;-68
2021/06/04 07:45:00;;;;;;;7.72;4.40;;;;;;;;;;10528652;28;20294;-68
2021/06/04 07:50:04;;;;;;;6.35;4.25;;;;;;;;;;10527022;28;20209;-68
2021/06/04 07:55:08;;;;;;;7.13;4.30;;;;;;;;;;10526201;28;20222;-68
2021/06/04 08:00:14;;;;;;;8.85;4.20;;;;;;;;;;10530459;28;20195;-70
2021/06/04 08:05:22;;;;;;;6.60;4.50;;;;;;;;;;10516739;28;20226;-69
2021/06/04 08:10:24;;;;;;;10.85;7.05;;;;;;;;;;10517163;28;20883;-68
2021/06/04 08:15:28;;;;;;;7.80;4.35;;;;;;;;;;10522391;28;20228;-68
2021/06/04 08:20:33;;;;;;;7.25;4.70;;;;;;;;;;10535453;28;20238;-68
2021/06/04 08:25:38;;;;;;;6.82;4.20;;;;;;;;;;10517485;28;20276;-68
2021/06/04 08:30:40;;;;;;;6.97;4.25;;;;;;;;;;10531024;28;20222;-67
2021/06/04 08:35:44;;;;;;;6.45;4.15;;;;;;;;;;10527884;28;20249;-68
2021/06/04 08:40:46;;;;;;;8.18;4.40;;;;;;;;;;10515858;28;20287;-68
2021/06/04 08:45:52;;;;;;;6.53;4.45;;;;;;;;;;10520453;28;20298;-68
2021/06/04 08:51:02;;;;;;;6.65;4.05;;;;;;;;;;10522089;28;20241;-69
2021/06/04 08:56:06;;;;;;;8.23;4.82;;;;;;;;;;10524468;28;20520;-69
2021/06/04 09:01:11;;;;;;;6.88;4.70;;;;;;;;;;10528200;28;20287;-69
2021/06/04 09:06:27;;;;;;;7.07;4.55;;;;;;;;;;10525601;28;20227;-70
2021/06/04 09:11:32;;;;;;;6.55;4.53;;;;;;;;;;10521071;28;20289;-70
2021/06/04 09:16:39;;;;;;;8.68;4.90;;;;;;;;;;10523792;28;20680;-70
2021/06/04 09:21:44;;;;;;;7.07;4.22;;;;;;;;;;10523254;28;20195;-71
2021/06/04 09:26:46;;;;;;;5.82;4.43;;;;;;;;;;10522434;28;20543;-70
2021/06/04 09:31:49;;;;;;;7.75;4.65;;;;;;;;;;10522713;28;20708;-69
2021/06/04 09:36:55;;;;;;;5.95;4.38;;;;;;;;;;10515983;28;20220;-68
2021/06/04 09:42:06;;;;;;;7.32;4.43;;;;;;;;;;10520683;28;20636;-70
2021/06/04 09:47:13;;;;;;;7.65;4.70;;;;;;;;;;10519816;28;20212;-70
2021/06/04 09:52:36;;;;;;;5.80;4.22;;;;;;;;;;10516990;28;20192;-68
2021/06/04 09:57:54;;;;;;;7.65;4.97;;;;;;;;;;10522501;28;20729;-69
2021/06/04 10:03:08;;;;;;;7.38;4.65;;;;;;;;;;10526386;28;20214;-70
2021/06/04 10:08:14;;;;;;;7.20;4.35;;;;;;;;;;10520070;28;20200;-68
2021/06/04 10:13:32;;;;;;;7.70;4.13;;;;;;;;;;10519560;28;20443;-68
2021/06/04 10:18:36;;;;;;;6.50;4.35;;;;;;;;;;10519786;28;20398;-69
2021/06/04 10:23:39;;;;;;;8.30;4.68;;;;;;;;;;10524502;28;20221;-69
2021/06/04 10:28:44;;;;;;;8.90;4.70;;;;;;;;;;10518966;28;20535;-69
2021/06/04 10:33:52;;;;;;;6.70;4.43;;;;;;;;;;10528549;28;20237;-69
2021/06/04 10:38:56;;;;;;;6.32;4.07;;;;;;;;;;10524764;28;20199;-70
2021/06/04 10:44:05;;;;;;;6.28;4.75;;;;;;;;;;10531572;28;20215;-68
2021/06/04 10:49:14;;;;;;;6.15;4.40;;;;;;;;;;10528443;28;20231;-68
2021/06/04 10:54:22;;;;;;;7.47;4.10;;;;;;;;;;10534945;28;20231;-68
2021/06/04 10:59:33;;;;;;;8.32;6.13;;;;;;;;;;10528474;28;20286;-69
2021/06/04 11:04:46;;;;;;;7.82;4.25;;;;;;;;;;10534464;28;20215;-69
2021/06/04 11:09:54;;;;;;;7.53;4.63;;;;;;;;;;10529579;28;20221;-70
2021/06/04 11:15:03;;;;;;;6.82;4.43;;;;;;;;;;10534034;28;20215;-70
2021/06/04 11:20:07;;;;;;;5.28;3.85;;;;;;;;;;10525250;28;20245;-71
2021/06/04 11:25:16;;;;;;;7.47;4.25;;;;;;;;;;10533182;28;20245;-71
2021/06/04 11:30:22;;;;;;;5.88;3.92;;;;;;;;;;10531840;28;20258;-70
2021/06/04 11:35:26;;;;;;;5.40;4.20;;;;;;;;;;10527000;28;20264;-70
2021/06/04 11:40:30;;;;;;;8.00;5.10;;;;;;;;;;10521706;28;20651;-70
2021/06/04 11:45:35;;;;;;;7.35;5.45;;;;;;;;;;10529133;28;20215;-70
2021/06/04 11:50:38;;;;;;;7.50;4.70;;;;;;;;;;10528143;28;20280;-70
2021/06/04 11:55:40;;;;;;;8.20;5.00;;;;;;;;;;10520600;28;20653;-70
2021/06/04 12:00:45;;;;;;;6.57;4.38;;;;;;;;;;10529926;28;20741;-69
2021/06/04 12:05:48;;;;;;;7.10;4.97;;;;;;;;;;10526463;28;20242;-70
2021/06/04 12:11:00;;;;;;;5.75;4.45;;;;;;;;;;10530781;28;20234;-69
2021/06/04 12:16:21;;;;;;;6.95;4.95;;;;;;;;;;10522466;28;20235;-69
2021/06/04 12:21:43;;;;;;;9.40;5.75;;;;;;;;;;10527680;28;20194;-69
2021/06/04 12:26:47;;;;;;;6.43;4.95;;;;;;;;;;10522655;28;20258;-70
2021/06/04 12:31:53;;;;;;;7.45;5.15;;;;;;;;;;10529811;28;20204;-69
2021/06/04 12:37:02;;;;;;;7.30;5.40;;;;;;;;;;10521655;28;20216;-68
2021/06/04 12:42:09;;;;;;;7.85;5.38;;;;;;;;;;10527985;28;20191;-68
2021/06/04 12:47:12;;;;;;;8.05;5.53;;;;;;;;;;10525348;28;20235;-69
2021/06/04 12:52:15;;;;;;;7.78;4.80;;;;;;;;;;10520469;28;20219;-69
2021/06/04 12:57:23;;;;;;;7.65;4.75;;;;;;;;;;10523680;28;20294;-69
2021/06/04 13:02:26;;;;;;;11.93;10.65;;;;;;;;;;10528783;28;20636;-68
2021/06/04 13:07:29;;;;;;;8.45;5.13;;;;;;;;;;10517420;28;20242;-68
2021/06/04 13:12:34;;;;;;;7.93;4.47;;;;;;;;;;10520055;28;20204;-69
2021/06/04 13:17:36;;;;;;;8.15;4.47;;;;;;;;;;10524775;28;20618;-69
2021/06/04 13:22:39;;;;;;;8.90;4.97;;;;;;;;;;10521318;28;20237;-68
2021/06/04 13:27:43;;;;;;;7.93;4.30;;;;;;;;;;10525703;28;20216;-70
2021/06/04 13:32:47;;;;;;;6.60;4.22;;;;;;;;;;10529413;28;20219;-68
2021/06/04 13:37:51;;;;;;;7.28;4.32;;;;;;;;;;10516943;28;20216;-69
2021/06/04 13:42:59;;;;;;;7.18;4.05;;;;;;;;;;10521702;28;20235;-69
2021/06/04 13:48:03;;;;;;;7.03;3.90;;;;;;;;;;10515818;28;20281;-69
2021/06/04 13:53:25;;;;;;;6.90;4.45;;;;;;;;;;10521634;28;20316;-68
2021/06/04 13:58:29;;;;;;;6.68;3.85;;;;;;;;;;10523388;28;20223;-68
2021/06/04 14:03:33;;;;;;;8.43;6.55;;;;;;;;;;10522438;28;20674;-70
2021/06/04 14:08:35;;;;;;;9.73;4.53;;;;;;;;;;10522873;28;20235;-68
2021/06/04 14:13:52;;;;;;;7.60;3.88;;;;;;;;;;10521432;28;20306;-69
2021/06/04 14:18:55;;;;;;;7.82;2.90;;;;;;;;;;10521921;28;20647;-70
2021/06/04 14:23:59;;;;;;;6.53;2.85;;;;;;;;;;10522435;28;20346;-69
2021/06/04 14:29:08;;;;;;;6.97;2.45;;;;;;;;;;10520958;28;20239;-68
2021/06/04 14:34:13;;;;;;;6.22;2.55;;;;;;;;;;10525877;28;20695;-70
2021/06/04 14:39:23;;;;;;;4.38;2.05;;;;;;;;;;10517334;28;20196;-70
2021/06/04 14:44:27;;;;;;;3.90;1.80;;;;;;;;;;10524570;28;20647;-68
2021/06/04 14:49:31;;;;;;;4.78;2.17;;;;;;;;;;10521232;28;20237;-69
2021/06/04 14:54:33;;;;;;;3.55;1.92;;;;;;;;;;10521990;28;20227;-69
2021/06/04 14:59:35;;;;;;;3.03;1.67;;;;;;;;;;10523660;28;20188;-68
2021/06/04 15:04:39;;;;;;;4.22;1.92;;;;;;;;;;10522440;28;20699;-69
2021/06/04 15:09:41;;;;;;;4.75;2.20;;;;;;;;;;10518408;28;20698;-69
2021/06/04 15:14:43;;;;;;;6.07;2.38;;;;;;;;;;10526766;28;20216;-69
2021/06/04 15:19:47;;;;;;;5.43;2.03;;;;;;;;;;10524990;28;20192;-68
2021/06/04 15:24:50;;;;;;;3.63;1.90;;;;;;;;;;10519966;28;20254;-68
2021/06/04 15:29:54;;;;;;;4.68;2.17;;;;;;;;;;10531867;28;20571;-68
2021/06/04 15:34:57;;;;;;;5.28;2.00;;;;;;;;;;10531068;28;20216;-67
2021/06/04 15:40:00;;;;;;;6.82;2.22;;;;;;;;;;10529937;28;20264;-70
2021/06/04 15:45:03;;;;;;;5.95;2.30;;;;;;;;;;10527746;28;20273;-68
2021/06/04 15:50:08;;;;;;;6.60;2.22;;;;;;;;;;10525384;28;20528;-68
2021/06/04 15:55:11;;;;;;;5.15;2.10;;;;;;;;;;10533638;28;20215;-69
2021/06/04 16:00:18;;;;;;;4.38;2.38;;;;;;;;;;10520887;28;20192;-68
2021/06/04 16:05:23;;;;;;;6.73;2.63;;;;;;;;;;10529608;28;20636;-67
2021/06/04 16:10:26;;;;;;;3.63;2.20;;;;;;;;;;10526385;28;20299;-67
2021/06/04 16:15:29;;;;;;;8.37;3.60;;;;;;;;;;10524437;28;20238;-68
2021/06/04 16:20:32;;;;;;;7.87;3.47;;;;;;;;;;10532052;28;20249;-68
2021/06/04 16:25:39;;;;;;;6.73;3.63;;;;;;;;;;10530103;28;20230;-68
2021/06/04 16:30:43;;;;;;;6.13;3.10;;;;;;;;;;10529363;28;20222;-68
2021/06/04 16:35:47;;;;;;;6.13;3.07;;;;;;;;;;10522017;28;20386;-69
2021/06/04 16:40:50;;;;;;;7.50;3.83;;;;;;;;;;10521411;28;20210;-67
2021/06/04 16:45:53;;;;;;;8.83;4.50;;;;;;;;;;10528856;28;20606;-68
2021/06/04 16:50:57;;;;;;;7.00;3.97;;;;;;;;;;10525280;28;20749;-67
2021/06/04 16:55:59;;;;;;;7.30;3.60;;;;;;;;;;10529034;28;20896;-68
2021/06/04 17:01:01;;;;;;;9.97;3.70;;;;;;;;;;10514190;28;20678;-68
2021/06/04 17:06:07;;;;;;;10.37;3.87;;;;;;;;;;10526244;28;20212;-68
2021/06/04 17:11:09;;;;;;;8.27;3.73;;;;;;;;;;10523269;28;20694;-68
2021/06/04 17:16:12;;;;;;;8.00;3.37;;;;;;;;;;10521945;28;20226;-69
2021/06/04 17:21:17;;;;;;;7.10;3.20;;;;;;;;;;10527332;28;20203;-68
2021/06/04 17:26:19;;;;;;;8.03;3.47;;;;;;;;;;10513204;28;20259;-68
2021/06/04 17:31:22;;;;;;;6.67;3.20;;;;;;;;;;10525589;28;20564;-69
2021/06/04 17:36:26;;;;;;;8.43;4.90;;;;;;;;;;10515239;28;20268;-68
2021/06/04 17:41:28;;;;;;;13.53;9.13;;;;;;;;;;10514335;28;20188;-68
2021/06/04 17:46:31;;;;;;;7.93;4.30;;;;;;;;;;10519324;28;20717;-69
2021/06/04 17:51:35;;;;;;;9.00;4.67;;;;;;;;;;10531386;28;20572;-67
2021/06/04 17:56:37;;;;;;;11.10;5.20;;;;;;;;;;10533185;28;20311;-68
2021/06/04 18:01:39;;;;;;;7.90;4.33;;;;;;;;;;10526940;28;20360;-68
2021/06/04 18:06:44;;;;;;;10.27;4.90;;;;;;;;;;10521254;28;20242;-68
2021/06/04 18:11:46;;;;;;;8.80;3.87;;;;;;;;;;10524318;28;20768;-68
2021/06/04 18:16:48;;;;;;;7.63;4.27;;;;;;;;;;10512976;28;20593;-69
2021/06/04 18:21:52;;;;;;;6.67;3.67;;;;;;;;;;10520424;28;20214;-68
2021/06/04 18:26:55;;;;;;;7.30;3.90;;;;;;;;;;10523851;28;20219;-69
2021/06/04 18:31:57;;;;;;;9.23;4.33;;;;;;;;;;10520707;28;20663;-68
2021/06/04 18:37:00;;;;;;;9.37;4.10;;;;;;;;;;10519573;28;20226;-69
2021/06/04 18:42:03;;;;;;;8.20;4.23;;;;;;;;;;10520701;28;20188;-70
2021/06/04 18:47:06;;;;;;;8.93;4.50;;;;;;;;;;10519039;28;20301;-68
2021/06/04 18:52:09;;;;;;;8.87;5.30;;;;;;;;;;10519123;28;20208;-69
2021/06/04 18:57:11;;;;;;;8.87;5.47;;;;;;;;;;10524868;28;20616;-68
2021/06/04 19:02:13;;;;;;;9.10;5.17;;;;;;;;;;10527703;28;20229;-69
2021/06/04 19:07:16;;;;;;;9.50;5.37;;;;;;;;;;10526205;28;20238;-68
2021/06/04 19:12:18;;;;;;;8.90;5.10;;;;;;;;;;10528221;28;20647;-69
2021/06/04 19:17:21;;;;;;;9.97;5.20;;;;;;;;;;10534689;28;20706;-68
2021/06/04 19:22:24;;;;;;;8.97;5.10;;;;;;;;;;10523098;28;20196;-70
2021/06/04 19:27:26;;;;;;;7.80;4.53;;;;;;;;;;10517462;28;20346;-68
2021/06/04 19:32:29;;;;;;;8.90;4.70;;;;;;;;;;10518449;28;20554;-69
2021/06/04 19:37:33;;;;;;;8.57;4.57;;;;;;;;;;10522532;28;20759;-69
2021/06/04 19:42:35;;;;;;;7.93;4.67;;;;;;;;;;10528237;28;20260;-69
2021/06/04 19:47:37;;;;;;;9.83;4.83;;;;;;;;;;10528678;28;20260;-69
2021/06/04 19:52:41;;;;;;;9.23;5.27;;;;;;;;;;10528605;28;20200;-70
2021/06/04 19:57:43;;;;;;;10.97;6.60;;;;;;;;;;10528036;28;20694;-68
2021/06/04 20:02:45;;;;;;;8.90;5.20;;;;;;;;;;10512168;28;20342;-69
2021/06/04 20:07:48;;;;;;;11.23;7.33;;;;;;;;;;10519073;28;20227;-70
2021/06/04 20:12:51;;;;;;;9.07;5.00;;;;;;;;;;10523553;28;20200;-70
2021/06/04 20:17:53;;;;;;;8.80;5.07;;;;;;;;;;10519680;28;20247;-69
2021/06/04 20:22:56;;;;;;;11.13;7.63;;;;;;;;;;10521914;28;20194;-69
2021/06/04 20:27:59;;;;;;;9.30;5.20;;;;;;;;;;10502406;28;20535;-69
2021/06/04 20:33:01;;;;;;;12.00;7.20;;;;;;;;;;10518814;28;20270;-69
2021/06/04 20:38:05;;;;;;;10.10;5.73;;;;;;;;;;10518415;28;20203;-71
2021/06/04 20:43:09;;;;;;;7.63;5.00;;;;;;;;;;10522242;28;20279;-68
2021/06/04 20:48:11;;;;;;;8.60;5.60;;;;;;;;;;10525180;28;20203;-68
2021/06/04 20:53:15;;;;;;;9.40;5.60;;;;;;;;;;10513255;28;20189;-68
2021/06/04 20:58:18;;;;;;;10.57;6.20;;;;;;;;;;10520182;28;20295;-68
2021/06/04 21:03:20;;;;;;;9.60;6.17;;;;;;;;;;10514491;28;20636;-68
2021/06/04 21:08:24;;;;;;;9.30;6.20;;;;;;;;;;10505775;28;20217;-67
2021/06/04 21:13:26;;;;;;;9.33;6.40;;;;;;;;;;10521890;28;20562;-69
2021/06/04 21:18:28;;;;;;;11.80;7.83;;;;;;;;;;10527057;28;20305;-68
2021/06/04 21:23:32;;;;;;;9.30;6.30;;;;;;;;;;10518153;28;20272;-68
2021/06/04 21:28:34;;;;;;;9.67;6.50;;;;;;;;;;10506913;28;20245;-68
2021/06/04 21:33:37;;;;;;;8.90;6.17;;;;;;;;;;10519591;28;20306;-69
2021/06/04 21:38:41;;;;;;;11.57;6.77;;;;;;;;;;10519329;28;20239;-67
2021/06/04 21:43:44;;;;;;;9.17;5.47;;;;;;;;;;10518498;28;20316;-68
2021/06/04 21:48:46;;;;;;;9.33;5.73;;;;;;;;;;10514830;28;20258;-67
2021/06/04 21:53:51;;;;;;;9.50;5.07;;;;;;;;;;10509959;28;20216;-69
2021/06/04 21:58:53;;;;;;;9.87;5.97;;;;;;;;;;10515787;28;20219;-69
2021/06/04 22:03:56;;;;;;;7.90;5.10;;;;;;;;;;10517888;28;20445;-69
2021/06/04 22:09:00;;;;;;;9.30;5.43;;;;;;;;;;10513711;28;20195;-68
2021/06/04 22:14:05;;;;;;;9.80;6.13;;;;;;;;;;10518662;28;20273;-68
2021/06/04 22:19:07;;;;;;;9.00;6.30;;;;;;;;;;10503697;28;20212;-68
2021/06/04 22:24:12;;;;;;;9.73;6.43;;;;;;;;;;10526877;28;20204;-68
2021/06/04 22:29:14;;;;;;;10.27;6.60;;;;;;;;;;10516676;28;20605;-68
2021/06/04 22:34:17;;;;;;;10.90;6.33;;;;;;;;;;10520126;28;20287;-69
2021/06/04 22:39:22;;;;;;;9.87;7.03;;;;;;;;;;10532395;28;20215;-67
2021/06/04 22:44:24;;;;;;;9.83;7.17;;;;;;;;;;10518417;28;20243;-67
2021/06/04 22:49:26;;;;;;;10.10;7.07;;;;;;;;;;10529181;28;20632;-68
2021/06/04 22:54:30;;;;;;;10.53;6.93;;;;;;;;;;10523377;28;20227;-68
2021/06/04 22:59:32;;;;;;;10.47;6.90;;;;;;;;;;10523002;28;20264;-68
2021/06/04 23:04:35;;;;;;;10.70;7.53;;;;;;;;;;10527743;28;20325;-69
2021/06/04 23:09:38;;;;;;;11.40;7.60;;;;;;;;;;10524870;28;20690;-68
2021/06/04 23:14:40;;;;;;;10.97;7.03;;;;;;;;;;10510989;28;20247;-69
2021/06/04 23:19:43;;;;;;;11.53;7.03;;;;;;;;;;10526798;28;20710;-68
2021/06/04 23:24:46;;;;;;;10.43;7.60;;;;;;;;;;10512373;28;20591;-69
2021/06/04 23:29:48;;;;;;;10.93;7.40;;;;;;;;;;10524002;28;20612;-69
2021/06/04 23:34:50;;;;;;;10.60;7.50;;;;;;;;;;10521515;28;20220;-67
2021/06/04 23:39:54;;;;;;;11.17;7.77;;;;;;;;;;10524598;28;20705;-68
2021/06/04 23:44:56;;;;;;;11.17;7.50;;;;;;;;;;10523869;28;20235;-68
2021/06/04 23:50:01;;;;;;;11.57;8.07;;;;;;;;;;10532107;28;20279;-68
2021/06/04 23:55:07;;;;;;;10.83;7.90;;;;;;;;;;10524228;28;20216;-68
